Time;durP1;ratioP1;P1;durP2;ratioP2;P2;SDS_P1;SDS_P2;PMS_P1;PMS_P2;Temp;Humidity;BMP_temperature;BMP_pressure;BME280_temperature;BME280_humidity;BME280_pressure;Samples;Min_cycle;Max_cycle;Signal;HPM_P1;HPM_P2
2021/05/15 00:01:48;;;;;;;4.87;4.47;;;;;;;;;;5033936;28;20965;-55
2021/05/15 00:04:14;;;;;;;4.40;4.00;;;;;;;;;;5033924;28;20408;-55
2021/05/15 00:06:40;;;;;;;4.47;4.17;;;;;;;;;;5033854;28;20822;-55
2021/05/15 00:09:06;;;;;;;4.30;4.00;;;;;;;;;;5034003;28;20398;-56
2021/05/15 00:11:32;;;;;;;4.47;4.17;;;;;;;;;;5033546;28;20402;-55
2021/05/15 00:13:58;;;;;;;5.33;4.13;;;;;;;;;;5033722;28;20410;-55
2021/05/15 00:16:24;;;;;;;4.30;4.00;;;;;;;;;;5033626;28;20428;-56
2021/05/15 00:18:50;;;;;;;6.97;4.77;;;;;;;;;;5033733;28;20411;-55
2021/05/15 00:21:16;;;;;;;4.70;4.23;;;;;;;;;;5033415;28;20478;-55
2021/05/15 00:23:42;;;;;;;4.30;3.97;;;;;;;;;;5033492;28;20416;-55
2021/05/15 00:26:09;;;;;;;7.20;4.33;;;;;;;;;;5033202;28;20501;-56
2021/05/15 00:28:35;;;;;;;4.53;4.13;;;;;;;;;;5033338;28;20394;-56
2021/05/15 00:31:01;;;;;;;5.27;4.90;;;;;;;;;;5033368;28;20967;-55
2021/05/15 00:33:27;;;;;;;5.30;4.47;;;;;;;;;;5033250;28;20461;-55
2021/05/15 00:35:53;;;;;;;6.13;4.50;;;;;;;;;;5033235;28;20414;-55
2021/05/15 00:38:19;;;;;;;7.60;4.67;;;;;;;;;;5033283;28;20431;-55
2021/05/15 00:40:45;;;;;;;9.23;5.60;;;;;;;;;;5033088;28;20908;-56
2021/05/15 00:43:11;;;;;;;5.20;4.70;;;;;;;;;;5032917;28;20416;-54
2021/05/15 00:45:37;;;;;;;5.43;4.93;;;;;;;;;;5033004;28;20453;-55
2021/05/15 00:48:04;;;;;;;8.23;5.00;;;;;;;;;;5033001;28;20441;-55
2021/05/15 00:50:33;;;;;;;4.83;4.47;;;;;;;;;;5032981;28;20405;-55
2021/05/15 00:52:59;;;;;;;6.00;4.83;;;;;;;;;;5032831;28;20402;-56
2021/05/15 00:55:25;;;;;;;6.93;4.60;;;;;;;;;;5032890;28;21002;-56
2021/05/15 00:57:53;;;;;;;6.70;5.23;;;;;;;;;;5032851;28;20433;-55
2021/05/15 01:00:19;;;;;;;5.83;4.80;;;;;;;;;;5033197;28;20755;-55
2021/05/15 01:02:45;;;;;;;5.27;4.87;;;;;;;;;;5030415;28;20458;-55
2021/05/15 01:05:12;;;;;;;5.70;5.20;;;;;;;;;;5032372;28;20485;-56
2021/05/15 01:07:38;;;;;;;5.43;5.03;;;;;;;;;;5031446;28;20505;-55
2021/05/15 01:10:04;;;;;;;7.47;5.73;;;;;;;;;;5032381;28;20903;-55
2021/05/15 01:12:30;;;;;;;7.30;5.90;;;;;;;;;;5032303;28;20441;-56
2021/05/15 01:14:56;;;;;;;6.10;5.50;;;;;;;;;;5032736;28;20442;-55
2021/05/15 01:17:22;;;;;;;6.47;5.87;;;;;;;;;;5032492;28;20476;-55
2021/05/15 01:19:48;;;;;;;7.57;5.30;;;;;;;;;;5032606;28;20788;-56
2021/05/15 01:22:15;;;;;;;5.73;5.30;;;;;;;;;;5032257;28;20481;-55
2021/05/15 01:24:45;;;;;;;5.77;5.27;;;;;;;;;;5032350;28;20422;-55
2021/05/15 01:27:13;;;;;;;6.07;5.10;;;;;;;;;;5032225;28;20485;-55
2021/05/15 01:29:40;;;;;;;4.93;4.60;;;;;;;;;;5032398;28;20394;-55
2021/05/15 01:32:06;;;;;;;5.50;5.00;;;;;;;;;;5032078;28;20398;-55
2021/05/15 01:34:32;;;;;;;4.60;4.07;;;;;;;;;;5032254;28;20398;-55
2021/05/15 01:36:58;;;;;;;4.67;4.23;;;;;;;;;;5032105;28;20828;-55
2021/05/15 01:39:24;;;;;;;3.83;3.50;;;;;;;;;;5032151;28;20411;-56
2021/05/15 01:41:51;;;;;;;4.50;4.13;;;;;;;;;;5031380;28;20777;-55
2021/05/15 01:44:17;;;;;;;4.63;3.83;;;;;;;;;;5032155;28;20406;-56
2021/05/15 01:46:43;;;;;;;4.47;4.10;;;;;;;;;;5031825;28;20461;-56
2021/05/15 01:49:09;;;;;;;4.03;3.73;;;;;;;;;;5032125;28;20486;-55
2021/05/15 01:51:35;;;;;;;3.90;3.70;;;;;;;;;;5031922;28;20775;-56
2021/05/15 01:54:01;;;;;;;4.90;3.83;;;;;;;;;;5031900;28;20394;-55
2021/05/15 01:56:29;;;;;;;4.17;3.83;;;;;;;;;;5032094;28;20449;-55
2021/05/15 01:58:55;;;;;;;4.10;3.80;;;;;;;;;;5031703;28;20489;-56
2021/05/15 02:01:22;;;;;;;3.80;3.60;;;;;;;;;;5031601;28;20875;-54
2021/05/15 02:03:49;;;;;;;3.90;3.60;;;;;;;;;;5031600;28;20433;-56
2021/05/15 02:06:15;;;;;;;5.57;3.63;;;;;;;;;;5031456;28;20452;-56
2021/05/15 02:08:42;;;;;;;3.70;3.50;;;;;;;;;;5031561;28;20443;-55
2021/05/15 02:11:09;;;;;;;3.67;3.47;;;;;;;;;;5031639;28;20477;-56
2021/05/15 02:13:35;;;;;;;4.13;3.83;;;;;;;;;;5031209;28;20402;-55
2021/05/15 02:16:01;;;;;;;4.00;3.70;;;;;;;;;;5031558;28;20398;-56
2021/05/15 02:18:28;;;;;;;7.00;4.63;;;;;;;;;;5031259;28;20922;-55
2021/05/15 02:20:54;;;;;;;5.50;4.40;;;;;;;;;;5031405;28;20504;-55
2021/05/15 02:23:20;;;;;;;4.63;4.23;;;;;;;;;;5031018;28;20469;-55
2021/05/15 02:25:47;;;;;;;4.80;4.47;;;;;;;;;;5031244;28;20453;-56
2021/05/15 02:28:13;;;;;;;6.63;5.90;;;;;;;;;;5031087;28;20434;-55
2021/05/15 02:30:39;;;;;;;5.97;5.47;;;;;;;;;;5031249;28;20481;-56
2021/05/15 02:33:06;;;;;;;5.90;5.43;;;;;;;;;;5030851;28;20941;-55
2021/05/15 02:35:32;;;;;;;6.10;5.23;;;;;;;;;;5031179;28;20434;-55
2021/05/15 02:37:58;;;;;;;6.33;5.73;;;;;;;;;;5030979;28;20435;-55
2021/05/15 02:40:24;;;;;;;6.20;5.60;;;;;;;;;;5031072;28;20853;-56
2021/05/15 02:42:51;;;;;;;6.73;6.00;;;;;;;;;;5030855;28;20887;-55
2021/05/15 02:45:17;;;;;;;5.83;5.30;;;;;;;;;;5030902;28;20481;-56
2021/05/15 02:47:43;;;;;;;10.30;5.77;;;;;;;;;;5030790;28;20446;-56
2021/05/15 02:50:10;;;;;;;8.43;5.97;;;;;;;;;;5030867;28;20473;-56
2021/05/15 02:52:36;;;;;;;5.40;5.00;;;;;;;;;;5029888;28;20883;-56
2021/05/15 02:55:03;;;;;;;5.47;4.97;;;;;;;;;;5030709;28;20405;-56
2021/05/15 02:57:29;;;;;;;5.67;5.20;;;;;;;;;;5029487;28;20453;-55
2021/05/15 02:59:55;;;;;;;5.97;5.57;;;;;;;;;;5030768;28;20411;-56
2021/05/15 03:02:21;;;;;;;5.17;4.77;;;;;;;;;;5030582;28;20405;-57
2021/05/15 03:04:47;;;;;;;5.23;4.83;;;;;;;;;;5030665;28;20461;-56
2021/05/15 03:07:13;;;;;;;5.73;5.33;;;;;;;;;;5030804;28;20917;-56
2021/05/15 03:09:39;;;;;;;4.70;4.40;;;;;;;;;;5030661;28;20751;-56
2021/05/15 03:12:05;;;;;;;5.30;4.87;;;;;;;;;;5030653;28;20402;-56
2021/05/15 03:14:31;;;;;;;6.70;5.63;;;;;;;;;;5030662;28;20778;-56
2021/05/15 03:16:57;;;;;;;5.70;5.20;;;;;;;;;;5030764;28;20426;-56
2021/05/15 03:19:23;;;;;;;5.53;4.97;;;;;;;;;;5030736;28;20564;-55
2021/05/15 03:21:49;;;;;;;5.67;5.27;;;;;;;;;;5030674;28;20402;-56
2021/05/15 03:24:15;;;;;;;5.57;5.17;;;;;;;;;;5030376;28;20402;-55
2021/05/15 03:26:41;;;;;;;5.70;5.13;;;;;;;;;;5030484;28;20462;-56
2021/05/15 03:29:07;;;;;;;5.60;5.10;;;;;;;;;;5030493;28;20778;-57
2021/05/15 03:31:33;;;;;;;5.80;5.30;;;;;;;;;;5030322;28;20394;-56
2021/05/15 03:33:59;;;;;;;5.10;4.70;;;;;;;;;;5030425;28;21069;-56
2021/05/15 03:36:26;;;;;;;6.13;5.53;;;;;;;;;;5030367;28;20806;-56
2021/05/15 03:38:52;;;;;;;7.63;5.33;;;;;;;;;;5030475;28;20402;-56
2021/05/15 03:41:18;;;;;;;6.17;5.40;;;;;;;;;;5030492;28;20453;-56
2021/05/15 03:43:44;;;;;;;5.20;4.80;;;;;;;;;;5030376;28;20402;-56
2021/05/15 03:46:10;;;;;;;9.00;5.77;;;;;;;;;;5029946;28;20457;-55
2021/05/15 03:48:36;;;;;;;4.60;4.23;;;;;;;;;;5030454;28;20412;-56
2021/05/15 03:51:02;;;;;;;5.30;4.80;;;;;;;;;;5030243;28;20469;-56
2021/05/15 03:53:28;;;;;;;5.20;4.80;;;;;;;;;;5030118;28;20395;-56
2021/05/15 03:55:54;;;;;;;5.07;4.67;;;;;;;;;;5028935;28;20408;-56
2021/05/15 03:58:20;;;;;;;6.90;4.77;;;;;;;;;;5030264;28;20422;-56
2021/05/15 04:00:46;;;;;;;4.87;4.47;;;;;;;;;;5030159;28;20461;-56
2021/05/15 04:03:12;;;;;;;4.17;3.90;;;;;;;;;;5030675;28;20419;-56
2021/05/15 04:05:38;;;;;;;7.93;4.93;;;;;;;;;;5032526;28;20457;-56
2021/05/15 04:08:04;;;;;;;5.27;4.77;;;;;;;;;;5033810;28;20511;-55
2021/05/15 04:10:30;;;;;;;4.50;4.10;;;;;;;;;;5033796;28;20403;-56
2021/05/15 04:15:46;;;;;;;5.20;3.87;;;;;;;;;;5033604;28;20464;-56
2021/05/15 04:18:13;;;;;;;4.23;3.90;;;;;;;;;;5033580;28;20802;-56
2021/05/15 04:20:39;;;;;;;4.10;3.80;;;;;;;;;;5033594;28;20398;-56
2021/05/15 04:23:05;;;;;;;3.20;3.00;;;;;;;;;;5033476;28;20468;-56
2021/05/15 04:25:31;;;;;;;4.40;4.00;;;;;;;;;;5033436;28;20468;-56
2021/05/15 04:27:57;;;;;;;4.30;3.90;;;;;;;;;;5033506;28;20790;-56
2021/05/15 04:30:24;;;;;;;4.20;3.90;;;;;;;;;;5033602;28;20395;-56
2021/05/15 04:32:50;;;;;;;4.10;3.80;;;;;;;;;;5033217;28;20406;-55
2021/05/15 04:35:16;;;;;;;4.33;4.03;;;;;;;;;;5033527;28;20456;-56
2021/05/15 04:37:42;;;;;;;4.37;3.97;;;;;;;;;;5033193;28;20453;-56
2021/05/15 04:40:09;;;;;;;4.50;4.20;;;;;;;;;;5033459;28;20461;-55
2021/05/15 04:42:37;;;;;;;4.57;4.17;;;;;;;;;;5032972;28;20965;-55
2021/05/15 04:45:04;;;;;;;4.30;4.00;;;;;;;;;;5033594;28;20410;-55
2021/05/15 04:47:30;;;;;;;4.97;4.57;;;;;;;;;;5033289;28;20438;-56
2021/05/15 04:49:56;;;;;;;4.57;4.10;;;;;;;;;;5033559;28;20464;-56
2021/05/15 04:52:22;;;;;;;3.80;3.50;;;;;;;;;;5032958;28;20410;-56
2021/05/15 04:54:48;;;;;;;4.60;4.03;;;;;;;;;;5033054;28;20407;-56
2021/05/15 04:57:14;;;;;;;3.70;3.40;;;;;;;;;;5032805;28;20542;-56
2021/05/15 04:59:39;;;;;;;4.17;3.87;;;;;;;;;;5032982;28;20536;-55
2021/05/15 05:02:05;;;;;;;3.50;3.20;;;;;;;;;;5032659;28;20415;-56
2021/05/15 05:04:31;;;;;;;4.00;3.70;;;;;;;;;;5033126;28;20395;-56
2021/05/15 05:06:57;;;;;;;3.57;3.23;;;;;;;;;;5032524;28;20497;-56
2021/05/15 05:09:23;;;;;;;4.13;3.77;;;;;;;;;;5032827;28;20392;-56
2021/05/15 05:11:49;;;;;;;4.50;3.60;;;;;;;;;;5032503;28;20434;-57
2021/05/15 05:14:15;;;;;;;3.23;3.03;;;;;;;;;;5032460;28;20461;-56
2021/05/15 05:16:41;;;;;;;6.73;3.37;;;;;;;;;;5031856;28;20430;-56
2021/05/15 05:19:11;;;;;;;3.23;3.03;;;;;;;;;;5032699;28;20394;-56
2021/05/15 05:21:37;;;;;;;3.70;3.40;;;;;;;;;;5032844;28;20407;-56
2021/05/15 05:24:03;;;;;;;3.20;3.00;;;;;;;;;;5032402;28;20491;-56
2021/05/15 05:26:29;;;;;;;3.63;3.43;;;;;;;;;;5032373;28;20468;-56
2021/05/15 05:28:58;;;;;;;3.30;3.10;;;;;;;;;;5032309;28;20396;-56
2021/05/15 05:31:24;;;;;;;3.90;3.60;;;;;;;;;;5032174;28;20444;-56
2021/05/15 05:33:50;;;;;;;4.23;3.47;;;;;;;;;;5032148;28;20489;-55
2021/05/15 05:36:16;;;;;;;2.90;2.67;;;;;;;;;;5032199;28;20454;-56
2021/05/15 05:38:42;;;;;;;3.60;3.40;;;;;;;;;;5032030;28;20485;-56
2021/05/15 05:41:08;;;;;;;3.90;3.60;;;;;;;;;;5032179;28;20405;-56
2021/05/15 05:43:34;;;;;;;3.30;3.10;;;;;;;;;;5031750;28;20457;-55
2021/05/15 05:46:00;;;;;;;3.10;2.90;;;;;;;;;;5031987;28;20892;-56
2021/05/15 05:48:26;;;;;;;4.50;4.10;;;;;;;;;;5031823;28;20419;-56
2021/05/15 05:50:52;;;;;;;4.10;3.50;;;;;;;;;;5031982;28;20402;-56
2021/05/15 05:53:18;;;;;;;3.27;3.07;;;;;;;;;;5031488;28;20444;-56
2021/05/15 05:55:44;;;;;;;6.40;3.93;;;;;;;;;;5031928;28;20405;-56
2021/05/15 05:58:10;;;;;;;5.27;4.87;;;;;;;;;;5031647;28;20513;-56
2021/05/15 06:00:36;;;;;;;5.57;5.03;;;;;;;;;;5031841;28;20430;-56
2021/05/15 06:03:02;;;;;;;5.77;4.90;;;;;;;;;;5031457;28;20444;-56
2021/05/15 06:05:28;;;;;;;5.97;4.70;;;;;;;;;;5031631;28;20506;-56
2021/05/15 06:07:54;;;;;;;5.50;5.00;;;;;;;;;;5031414;28;20397;-55
2021/05/15 06:10:20;;;;;;;8.03;5.20;;;;;;;;;;5031679;28;20404;-56
2021/05/15 06:12:46;;;;;;;5.27;4.87;;;;;;;;;;5031342;28;20476;-56
2021/05/15 06:15:12;;;;;;;5.57;5.17;;;;;;;;;;5031601;28;20999;-56
2021/05/15 06:17:38;;;;;;;5.00;4.60;;;;;;;;;;5031483;28;20498;-56
2021/05/15 06:20:04;;;;;;;4.83;4.40;;;;;;;;;;5031348;28;20406;-56
2021/05/15 06:22:30;;;;;;;4.60;4.20;;;;;;;;;;5031152;28;20405;-55
2021/05/15 06:24:56;;;;;;;5.20;4.83;;;;;;;;;;5031203;28;21016;-57
2021/05/15 06:27:22;;;;;;;5.80;5.30;;;;;;;;;;5031150;28;20425;-56
2021/05/15 06:29:48;;;;;;;5.90;5.40;;;;;;;;;;5031227;28;20401;-56
2021/05/15 06:32:14;;;;;;;6.93;6.23;;;;;;;;;;5031129;28;20405;-56
2021/05/15 06:34:40;;;;;;;8.30;7.13;;;;;;;;;;5031123;28;20398;-56
2021/05/15 06:37:06;;;;;;;9.20;8.20;;;;;;;;;;5031227;28;20503;-56
2021/05/15 06:39:32;;;;;;;10.57;9.00;;;;;;;;;;5031198;28;20425;-56
2021/05/15 06:41:58;;;;;;;13.80;9.80;;;;;;;;;;5031131;28;20544;-56
2021/05/15 06:44:24;;;;;;;13.13;10.27;;;;;;;;;;5031136;28;20463;-56
2021/05/15 06:46:50;;;;;;;11.83;10.53;;;;;;;;;;5031066;28;20463;-56
2021/05/15 06:49:16;;;;;;;12.70;10.00;;;;;;;;;;5030975;28;20412;-56
2021/05/15 06:51:42;;;;;;;14.17;11.90;;;;;;;;;;5030859;28;20408;-56
2021/05/15 06:54:08;;;;;;;16.20;12.70;;;;;;;;;;5030816;28;20398;-57
2021/05/15 06:56:34;;;;;;;14.07;12.13;;;;;;;;;;5030937;28;20460;-56
2021/05/15 06:58:59;;;;;;;12.40;11.10;;;;;;;;;;5030887;28;20488;-57
2021/05/15 07:01:26;;;;;;;13.70;11.10;;;;;;;;;;5030750;28;20464;-57
2021/05/15 07:03:52;;;;;;;14.07;12.03;;;;;;;;;;5030770;28;20414;-57
2021/05/15 07:06:17;;;;;;;13.10;11.33;;;;;;;;;;5031027;28;20451;-57
2021/05/15 07:08:43;;;;;;;15.00;11.53;;;;;;;;;;5030770;28;20409;-56
2021/05/15 07:11:09;;;;;;;15.90;12.40;;;;;;;;;;5030749;28;20407;-57
2021/05/15 07:13:35;;;;;;;17.63;13.37;;;;;;;;;;5030512;28;20405;-56
2021/05/15 07:16:01;;;;;;;14.33;12.40;;;;;;;;;;5030638;28;20409;-56
2021/05/15 07:18:27;;;;;;;15.17;11.77;;;;;;;;;;5030552;28;20484;-56
2021/05/15 07:20:53;;;;;;;13.40;11.53;;;;;;;;;;5030545;28;20422;-57
2021/05/15 07:23:19;;;;;;;14.27;11.27;;;;;;;;;;5030421;28;20426;-56
2021/05/15 07:25:45;;;;;;;13.40;10.90;;;;;;;;;;5030436;28;20845;-57
2021/05/15 07:28:11;;;;;;;15.97;11.73;;;;;;;;;;5030520;28;20416;-57
2021/05/15 07:30:37;;;;;;;15.13;11.87;;;;;;;;;;5030426;28;20405;-57
2021/05/15 07:33:03;;;;;;;13.43;11.57;;;;;;;;;;5030252;28;20404;-57
2021/05/15 07:35:29;;;;;;;12.10;10.37;;;;;;;;;;5030334;28;20403;-56
2021/05/15 07:37:55;;;;;;;10.47;9.37;;;;;;;;;;5030641;28;20503;-57
2021/05/15 07:40:22;;;;;;;10.43;9.27;;;;;;;;;;5034305;28;20416;-56
2021/05/15 07:42:48;;;;;;;11.63;9.80;;;;;;;;;;5034212;28;20413;-56
2021/05/15 07:45:14;;;;;;;12.50;9.53;;;;;;;;;;5034142;28;20544;-56
2021/05/15 07:47:42;;;;;;;8.40;7.60;;;;;;;;;;5034120;28;20449;-56
2021/05/15 07:50:09;;;;;;;8.40;7.60;;;;;;;;;;5034112;28;20487;-57
2021/05/15 07:52:35;;;;;;;8.70;7.80;;;;;;;;;;5033994;28;20943;-59
2021/05/15 07:55:01;;;;;;;7.80;7.00;;;;;;;;;;5034040;28;20420;-57
2021/05/15 07:57:27;;;;;;;7.53;6.57;;;;;;;;;;5034045;28;20908;-56
2021/05/15 07:59:53;;;;;;;13.73;6.87;;;;;;;;;;5034100;28;20402;-57
2021/05/15 08:02:21;;;;;;;7.60;6.80;;;;;;;;;;5033652;28;20413;-56
2021/05/15 08:04:47;;;;;;;7.20;6.60;;;;;;;;;;5034032;28;20870;-55
2021/05/15 08:07:12;;;;;;;8.63;7.33;;;;;;;;;;5033620;28;20438;-56
2021/05/15 08:09:38;;;;;;;7.47;6.87;;;;;;;;;;5033908;28;20474;-56
2021/05/15 08:12:05;;;;;;;7.50;6.90;;;;;;;;;;5033564;28;20372;-56
2021/05/15 08:14:31;;;;;;;7.20;6.50;;;;;;;;;;5033789;28;20489;-56
2021/05/15 08:16:57;;;;;;;8.00;7.40;;;;;;;;;;5033479;28;20875;-56
2021/05/15 08:19:23;;;;;;;7.90;7.20;;;;;;;;;;5033699;28;20489;-56
2021/05/15 08:21:49;;;;;;;7.97;7.17;;;;;;;;;;5033404;28;20405;-56
2021/05/15 08:24:14;;;;;;;7.67;7.07;;;;;;;;;;5033643;28;20380;-56
2021/05/15 08:26:40;;;;;;;6.83;6.33;;;;;;;;;;5033381;28;21006;-56
2021/05/15 08:29:11;;;;;;;6.67;6.07;;;;;;;;;;5033585;28;20758;-56
2021/05/15 08:31:38;;;;;;;6.83;6.33;;;;;;;;;;5033149;28;20387;-56
2021/05/15 08:34:04;;;;;;;7.23;6.67;;;;;;;;;;5033403;28;20462;-56
2021/05/15 08:36:30;;;;;;;6.10;5.60;;;;;;;;;;5033275;28;20436;-56
2021/05/15 08:38:57;;;;;;;5.80;5.40;;;;;;;;;;5033430;28;20413;-56
2021/05/15 08:41:23;;;;;;;6.50;6.00;;;;;;;;;;5033192;28;20409;-56
2021/05/15 08:43:49;;;;;;;6.83;6.23;;;;;;;;;;5033284;28;20402;-56
2021/05/15 08:46:16;;;;;;;8.60;7.80;;;;;;;;;;5038143;28;20541;-56
2021/05/15 08:48:43;;;;;;;9.07;8.17;;;;;;;;;;5057132;28;20450;-56
2021/05/15 08:51:12;;;;;;;9.50;8.70;;;;;;;;;;5052434;28;20374;-55
2021/05/15 08:53:39;;;;;;;9.80;8.90;;;;;;;;;;5052972;28;20465;-54
2021/05/15 08:56:08;;;;;;;11.13;9.00;;;;;;;;;;5053062;28;20429;-54
2021/05/15 08:58:35;;;;;;;10.47;9.37;;;;;;;;;;5052843;28;20375;-55
2021/05/15 09:01:01;;;;;;;10.23;9.10;;;;;;;;;;5053021;28;20523;-54
2021/05/15 09:03:27;;;;;;;11.20;10.00;;;;;;;;;;5052512;28;20985;-54
2021/05/15 09:05:53;;;;;;;9.60;8.60;;;;;;;;;;5052746;28;20814;-55
2021/05/15 09:08:19;;;;;;;11.13;10.03;;;;;;;;;;5052562;28;20424;-56
2021/05/15 09:10:47;;;;;;;12.30;11.10;;;;;;;;;;5053231;28;20879;-56
2021/05/15 09:13:19;;;;;;;9.50;8.60;;;;;;;;;;5052270;28;20459;-56
2021/05/15 09:15:46;;;;;;;9.83;8.43;;;;;;;;;;5052576;28;20885;-54
2021/05/15 09:18:21;;;;;;;8.50;7.67;;;;;;;;;;5052427;28;20399;-54
2021/05/15 09:20:47;;;;;;;8.37;7.67;;;;;;;;;;5051367;28;20376;-55
2021/05/15 09:23:14;;;;;;;8.67;7.80;;;;;;;;;;5051560;28;20415;-55
2021/05/15 09:25:40;;;;;;;7.67;6.97;;;;;;;;;;5050331;28;20452;-56
2021/05/15 09:28:06;;;;;;;8.63;7.60;;;;;;;;;;5050951;28;20848;-55
2021/05/15 09:30:33;;;;;;;9.03;7.10;;;;;;;;;;5052001;28;20405;-54
2021/05/15 09:33:10;;;;;;;7.70;7.10;;;;;;;;;;5052268;28;20368;-56
2021/05/15 09:35:36;;;;;;;7.90;7.30;;;;;;;;;;5052059;28;20492;-54
2021/05/15 09:38:02;;;;;;;7.43;6.73;;;;;;;;;;5052043;28;20456;-54
2021/05/15 09:40:28;;;;;;;8.87;8.07;;;;;;;;;;5050593;28;20420;-54
2021/05/15 09:42:55;;;;;;;8.20;7.50;;;;;;;;;;5051858;28;20376;-54
2021/05/15 09:45:28;;;;;;;9.03;8.13;;;;;;;;;;5051744;28;20419;-55
2021/05/15 09:48:05;;;;;;;7.30;6.77;;;;;;;;;;5051748;28;20516;-54
2021/05/15 09:50:32;;;;;;;7.57;6.97;;;;;;;;;;5051794;28;20459;-55
2021/05/15 09:53:15;;;;;;;8.10;7.30;;;;;;;;;;5051509;28;20893;-55
2021/05/15 09:55:42;;;;;;;7.90;7.20;;;;;;;;;;5051925;28;20817;-54
2021/05/15 09:58:08;;;;;;;8.40;7.73;;;;;;;;;;5051687;28;20431;-55
2021/05/15 10:00:45;;;;;;;7.33;6.77;;;;;;;;;;5051360;28;20387;-54
2021/05/15 10:03:17;;;;;;;7.70;7.10;;;;;;;;;;5051390;28;20429;-54
2021/05/15 10:05:43;;;;;;;7.47;6.80;;;;;;;;;;5051448;28;20455;-54
2021/05/15 10:08:09;;;;;;;6.73;6.23;;;;;;;;;;5051615;28;20421;-54
2021/05/15 10:10:35;;;;;;;9.53;6.60;;;;;;;;;;5051588;28;20875;-54
2021/05/15 10:13:01;;;;;;;7.73;7.13;;;;;;;;;;5051494;28;20393;-54
2021/05/15 10:15:27;;;;;;;7.63;7.07;;;;;;;;;;5051771;28;20368;-54
2021/05/15 10:17:53;;;;;;;8.23;7.63;;;;;;;;;;5051367;28;20883;-54
2021/05/15 10:20:19;;;;;;;7.37;6.67;;;;;;;;;;5051484;28;20384;-54
2021/05/15 10:22:46;;;;;;;7.20;6.70;;;;;;;;;;5051008;28;20405;-54
2021/05/15 10:25:13;;;;;;;7.23;6.63;;;;;;;;;;5051283;28;20401;-54
2021/05/15 10:27:39;;;;;;;6.20;5.80;;;;;;;;;;5050957;28;20414;-55
2021/05/15 10:30:12;;;;;;;6.07;5.57;;;;;;;;;;5051103;28;20376;-56
2021/05/15 10:32:51;;;;;;;5.07;4.77;;;;;;;;;;5050723;28;20409;-54
2021/05/15 10:35:26;;;;;;;4.97;4.57;;;;;;;;;;5051086;28;20871;-56
2021/05/15 10:38:00;;;;;;;4.60;4.30;;;;;;;;;;5050750;28;20512;-54
2021/05/15 10:40:27;;;;;;;6.87;4.30;;;;;;;;;;5050976;28;20757;-54
2021/05/15 10:43:00;;;;;;;4.73;4.43;;;;;;;;;;5050530;28;20398;-55
2021/05/15 10:45:32;;;;;;;6.57;4.77;;;;;;;;;;5050956;28;20453;-55
2021/05/15 10:48:10;;;;;;;4.80;4.40;;;;;;;;;;5050580;28;20806;-55
2021/05/15 10:50:48;;;;;;;4.10;3.80;;;;;;;;;;5050961;28;20486;-55
2021/05/15 10:53:27;;;;;;;4.30;4.10;;;;;;;;;;5050444;28;20908;-56
2021/05/15 10:56:13;;;;;;;4.10;3.73;;;;;;;;;;5049826;28;20477;-56
2021/05/15 10:58:44;;;;;;;4.33;4.03;;;;;;;;;;5051214;28;20405;-57
2021/05/15 11:01:16;;;;;;;4.50;4.10;;;;;;;;;;5049781;28;20469;-56
2021/05/15 11:03:43;;;;;;;4.20;4.00;;;;;;;;;;5050811;28;20405;-55
2021/05/15 11:06:30;;;;;;;4.00;3.80;;;;;;;;;;5033143;28;20477;-56
2021/05/15 11:08:59;;;;;;;3.67;3.47;;;;;;;;;;5049653;28;21066;-56
2021/05/15 11:11:36;;;;;;;5.43;2.53;;;;;;;;;;5050757;28;20405;-57
2021/05/15 11:14:03;;;;;;;2.70;2.50;;;;;;;;;;5048367;28;20412;-56
2021/05/15 11:16:32;;;;;;;3.17;2.97;;;;;;;;;;5050568;28;20475;-55
2021/05/15 11:19:25;;;;;;;6.40;2.93;;;;;;;;;;5050551;28;20405;-54
2021/05/15 11:21:53;;;;;;;3.33;3.13;;;;;;;;;;5048095;28;20979;-55
2021/05/15 11:24:28;;;;;;;2.50;2.30;;;;;;;;;;5049111;28;20916;-54
2021/05/15 11:26:55;;;;;;;2.23;2.00;;;;;;;;;;5049174;28;20461;-55
2021/05/15 11:29:31;;;;;;;2.27;2.17;;;;;;;;;;5050952;28;20408;-52
2021/05/15 11:32:07;;;;;;;3.13;2.80;;;;;;;;;;5050298;28;20385;-53
2021/05/15 11:34:33;;;;;;;4.40;2.17;;;;;;;;;;5050209;28;20426;-54
2021/05/15 11:36:59;;;;;;;2.70;2.50;;;;;;;;;;5050231;28;20795;-54
2021/05/15 11:39:25;;;;;;;1.97;1.87;;;;;;;;;;5050265;28;20414;-55
2021/05/15 11:42:08;;;;;;;2.40;2.30;;;;;;;;;;5050134;28;20770;-54
2021/05/15 11:44:36;;;;;;;2.10;1.83;;;;;;;;;;5050179;28;20495;-55
2021/05/15 11:47:02;;;;;;;1.80;1.70;;;;;;;;;;5050117;28;20472;-53
2021/05/15 11:49:28;;;;;;;2.70;2.00;;;;;;;;;;5050135;28;20407;-55
2021/05/15 11:52:23;;;;;;;3.03;2.83;;;;;;;;;;5050064;28;20451;-55
2021/05/15 11:54:50;;;;;;;2.63;2.40;;;;;;;;;;5037018;28;20448;-53
2021/05/15 11:57:25;;;;;;;2.33;2.23;;;;;;;;;;5050170;28;20421;-54
2021/05/15 11:59:50;;;;;;;3.73;2.50;;;;;;;;;;5050050;28;20432;-55
2021/05/15 12:02:16;;;;;;;2.37;2.27;;;;;;;;;;5049896;28;20478;-55
2021/05/15 12:04:42;;;;;;;3.83;3.13;;;;;;;;;;5049158;28;20395;-55
2021/05/15 12:07:08;;;;;;;2.87;2.63;;;;;;;;;;5049314;28;21044;-55
2021/05/15 12:09:35;;;;;;;2.80;2.60;;;;;;;;;;5049933;28;20409;-53
2021/05/15 12:12:02;;;;;;;3.93;2.90;;;;;;;;;;5048635;28;20504;-55
2021/05/15 12:14:28;;;;;;;3.30;3.00;;;;;;;;;;5049833;28;20390;-54
2021/05/15 12:16:56;;;;;;;4.90;3.00;;;;;;;;;;5050118;28;20490;-53
2021/05/15 12:19:27;;;;;;;3.73;3.07;;;;;;;;;;5050447;28;20372;-53
2021/05/15 12:22:06;;;;;;;3.33;3.07;;;;;;;;;;5049999;28;20500;-56
2021/05/15 12:24:37;;;;;;;3.07;2.83;;;;;;;;;;5051172;28;20372;-54
2021/05/15 12:27:07;;;;;;;2.70;2.50;;;;;;;;;;5051850;28;20483;-56
2021/05/15 12:29:33;;;;;;;2.63;2.20;;;;;;;;;;5053549;28;20948;-55
2021/05/15 12:31:59;;;;;;;2.73;2.57;;;;;;;;;;5053184;28;20376;-55
2021/05/15 12:34:25;;;;;;;3.37;2.20;;;;;;;;;;5052077;28;20497;-54
2021/05/15 12:36:51;;;;;;;2.47;2.27;;;;;;;;;;5053144;28;20436;-54
2021/05/15 12:39:17;;;;;;;4.80;2.37;;;;;;;;;;5053343;28;20410;-53
2021/05/15 12:41:44;;;;;;;3.20;2.57;;;;;;;;;;5052872;28;20898;-54
2021/05/15 12:44:11;;;;;;;2.30;2.10;;;;;;;;;;5053360;28;20421;-56
2021/05/15 12:46:38;;;;;;;2.90;2.70;;;;;;;;;;5052792;28;20966;-54
2021/05/15 12:49:08;;;;;;;2.27;2.07;;;;;;;;;;5053123;28;20372;-54
2021/05/15 12:51:35;;;;;;;1.97;1.87;;;;;;;;;;5052707;28;20425;-54
2021/05/15 12:54:14;;;;;;;2.07;1.97;;;;;;;;;;5052863;28;20762;-54
2021/05/15 12:56:40;;;;;;;2.20;2.10;;;;;;;;;;5052717;28;20425;-56
2021/05/15 12:59:07;;;;;;;6.50;2.20;;;;;;;;;;5052908;28;20402;-54
2021/05/15 13:01:33;;;;;;;2.27;2.00;;;;;;;;;;5052659;28;20380;-54
2021/05/15 13:03:59;;;;;;;2.33;2.23;;;;;;;;;;5052655;28;20430;-53
2021/05/15 13:06:26;;;;;;;1.93;1.80;;;;;;;;;;5052628;28;20431;-54
2021/05/15 13:09:01;;;;;;;2.03;1.93;;;;;;;;;;5052554;28;20425;-54
2021/05/15 13:11:28;;;;;;;1.80;1.70;;;;;;;;;;5052388;28;20397;-54
2021/05/15 13:13:58;;;;;;;3.47;2.23;;;;;;;;;;5052389;28;20402;-54
2021/05/15 13:16:25;;;;;;;1.90;1.80;;;;;;;;;;5052516;28;20408;-54
2021/05/15 13:19:02;;;;;;;1.83;1.73;;;;;;;;;;5052408;28;20954;-54
2021/05/15 13:21:28;;;;;;;1.77;1.47;;;;;;;;;;5052308;28;20427;-54
2021/05/15 13:23:54;;;;;;;1.93;1.83;;;;;;;;;;5052206;28;20837;-54
2021/05/15 13:26:20;;;;;;;1.53;1.43;;;;;;;;;;5052233;28;20495;-54
2021/05/15 13:28:46;;;;;;;2.40;1.80;;;;;;;;;;5052229;28;20433;-54
2021/05/15 13:31:12;;;;;;;1.50;1.40;;;;;;;;;;5052258;28;20389;-56
2021/05/15 13:33:38;;;;;;;1.60;1.50;;;;;;;;;;5051874;28;20408;-55
2021/05/15 13:36:04;;;;;;;2.27;1.47;;;;;;;;;;5051569;28;20409;-54
2021/05/15 13:38:30;;;;;;;1.40;1.30;;;;;;;;;;5051824;28;20399;-55
2021/05/15 13:40:56;;;;;;;1.27;1.20;;;;;;;;;;5052035;28;20963;-55
2021/05/15 13:43:22;;;;;;;1.70;1.60;;;;;;;;;;5051804;28;20840;-55
2021/05/15 13:45:48;;;;;;;2.07;1.50;;;;;;;;;;5051790;28;20479;-55
2021/05/15 13:48:29;;;;;;;1.30;1.20;;;;;;;;;;5051653;28;20444;-54
2021/05/15 13:50:56;;;;;;;1.50;1.40;;;;;;;;;;5051810;28;20397;-55
2021/05/15 13:53:21;;;;;;;6.50;1.40;;;;;;;;;;5051577;28;20417;-54
2021/05/15 13:55:47;;;;;;;1.67;1.30;;;;;;;;;;5051686;28;20873;-54
2021/05/15 13:58:13;;;;;;;1.87;1.30;;;;;;;;;;5051669;28;20512;-55
2021/05/15 14:00:39;;;;;;;1.40;1.30;;;;;;;;;;5051513;28;20398;-55
2021/05/15 14:03:05;;;;;;;1.63;1.53;;;;;;;;;;5051450;28;20397;-55
2021/05/15 14:05:31;;;;;;;1.10;1.10;;;;;;;;;;5051340;28;20488;-56
2021/05/15 14:07:58;;;;;;;3.20;3.00;;;;;;;;;;5050366;28;20419;-56
2021/05/15 14:10:24;;;;;;;1.77;1.30;;;;;;;;;;5050201;28;20409;-55
2021/05/15 14:12:50;;;;;;;1.47;1.37;;;;;;;;;;5051380;28;20413;-57
2021/05/15 14:15:16;;;;;;;2.17;1.40;;;;;;;;;;5051649;28;20487;-57
2021/05/15 14:17:42;;;;;;;1.37;1.27;;;;;;;;;;5051787;28;20425;-55
2021/05/15 14:20:08;;;;;;;1.27;1.10;;;;;;;;;;5050418;28;20380;-55
2021/05/15 14:22:34;;;;;;;2.90;1.73;;;;;;;;;;5051288;28;20889;-54
2021/05/15 14:25:00;;;;;;;1.50;1.40;;;;;;;;;;5051543;28;20398;-54
2021/05/15 14:27:26;;;;;;;1.50;1.40;;;;;;;;;;5051121;28;20514;-54
2021/05/15 14:29:54;;;;;;;3.93;1.30;;;;;;;;;;5051350;28;20372;-55
2021/05/15 14:32:20;;;;;;;3.00;1.20;;;;;;;;;;5050904;28;20436;-54
2021/05/15 14:34:46;;;;;;;1.93;1.40;;;;;;;;;;5051210;28;20402;-53
2021/05/15 14:37:12;;;;;;;2.03;1.20;;;;;;;;;;5050945;28;20407;-53
2021/05/15 14:39:38;;;;;;;2.80;1.30;;;;;;;;;;5051145;28;20775;-53
2021/05/15 14:42:04;;;;;;;3.20;1.30;;;;;;;;;;5050777;28;20406;-53
2021/05/15 14:44:30;;;;;;;1.37;1.17;;;;;;;;;;5049644;28;20482;-54